»·PEaware :: AAL1917 KSFO-KPHX

AAL1917 :: KSFO-KPHX

FLIGHT INFORMATION

Flight Status: Arrived
Operator:
American Airlines
More flights by this operator :: More flights under this callsign
Pilot: Ben F. (2808)
Aircraft: MCDONNELL-DOUGLAS MD-82
(MD82)
More flights by this aircraft type
Origin: KSFO San Francisco Intl
United States
Destination: KPHX Phoenix Sky Harbor Intl
United States
More flights between these airports :: More routes between these airports
Route: +SSTIK3 LOSHN BOILE BLH HYDRR1
File this flight plan on PilotEdge
Remarks:
Altitude:
(Current/Filed)
35,000ft
Speed:
(Current/Filed)
455kts
Departed: 01-May-18 09:00 AM
Arrived: 01-May-18 10:28 AM
Distance/Time
Traveled:
565nm/1:28
Distance/Time
To Go:
Arrived

Flight Plot

Page will automatically refresh every two minutes.


Map Options




Map Legend


Flown Route
Filed Route
Departure Airport
Arrival Airport
Navaid (VOR, NDB)
Fix

Horizontal Profiles

Position Reports

Time Latitude Longitude Heading Altitude Ground
Speed
01-May-18 08:43 37.615311 -122.382220 220 22ft 0kts
01-May-18 08:44 37.615311 -122.382220 220 22ft 0kts
01-May-18 08:45 37.615311 -122.382220 220 22ft 0kts
01-May-18 08:46 37.615311 -122.382220 220 22ft 0kts
01-May-18 08:47 37.615311 -122.382220 220 22ft 0kts
01-May-18 08:48 37.615311 -122.382220 220 22ft 0kts
01-May-18 08:49 37.615311 -122.382220 220 22ft 0kts
01-May-18 08:50 37.615311 -122.382220 220 22ft 0kts
01-May-18 08:51 37.615310 -122.382221 220 22ft 0kts
01-May-18 08:52 37.615486 -122.382041 210 22ft 3kts
01-May-18 08:53 37.615838 -122.382017 138 22ft 0kts
01-May-18 08:54 37.615452 -122.381021 123 22ft 8kts
01-May-18 08:55 37.612220 -122.382575 207 22ft 11kts
01-May-18 08:56 37.609237 -122.384715 187 22ft 12kts
01-May-18 08:57 37.608491 -122.383840 115 22ft 0kts
01-May-18 08:58 37.608644 -122.382415 26 22ft 6kts
01-May-18 08:59 37.619901 -122.374932 27 23ft 145kts
01-May-18 09:00 37.661470 -122.356233 0 2108ft 183kts
01-May-18 09:01 37.714398 -122.388277 285 4346ft 246kts
01-May-18 09:02 37.671506 -122.452373 191 7304ft 289kts
01-May-18 09:03 37.589319 -122.462207 184 10206ft 305kts
01-May-18 09:04 37.502099 -122.471758 182 11965ft 336kts
01-May-18 09:05 37.430276 -122.400859 110 13932ft 358kts
01-May-18 09:06 37.375972 -122.292199 125 16427ft 378kts
01-May-18 09:07 37.306225 -122.189210 124 18715ft 394kts
01-May-18 09:08 37.236077 -122.079939 123 20640ft 411kts
01-May-18 09:09 37.162833 -121.966682 124 22533ft 421kts
01-May-18 09:10 37.087026 -121.850262 123 23963ft 436kts
01-May-18 09:11 37.009329 -121.731474 124 25333ft 445kts
01-May-18 09:12 36.929935 -121.610978 124 26542ft 453kts
01-May-18 09:13 36.848968 -121.488404 124 27606ft 460kts
01-May-18 09:14 36.767084 -121.364857 125 28535ft 466kts
01-May-18 09:15 36.684563 -121.239854 125 29613ft 465kts
01-May-18 09:16 36.602294 -121.116698 125 30715ft 462kts
01-May-18 09:17 36.520333 -120.994180 126 31690ft 461kts
01-May-18 09:18 36.438174 -120.871927 127 32576ft 459kts
01-May-18 09:19 36.356398 -120.750669 127 33396ft 457kts
01-May-18 09:20 36.275516 -120.629225 128 34105ft 456kts
01-May-18 09:21 36.194168 -120.508403 129 34802ft 454kts
01-May-18 09:22 36.112354 -120.387816 130 34959ft 463kts
01-May-18 09:23 36.028697 -120.264966 130 34958ft 471kts
01-May-18 09:24 35.944542 -120.141180 130 34957ft 470kts
01-May-18 09:25 35.860805 -120.017839 130 34956ft 469kts
01-May-18 09:26 35.775170 -119.896047 132 34954ft 469kts
01-May-18 09:27 35.689753 -119.774581 131 34950ft 469kts
01-May-18 09:28 35.604043 -119.653509 132 34946ft 470kts
01-May-18 09:29 35.518124 -119.531735 132 34943ft 471kts
01-May-18 09:30 35.431985 -119.410725 133 34941ft 471kts
01-May-18 09:31 35.345826 -119.289770 134 34936ft 472kts
01-May-18 09:32 35.259122 -119.168500 134 34936ft 472kts
01-May-18 09:33 35.172272 -119.048218 135 34937ft 472kts
01-May-18 09:34 35.085668 -118.927689 135 34933ft 473kts
01-May-18 09:35 34.998479 -118.807152 136 34933ft 472kts
01-May-18 09:36 34.911568 -118.687159 136 34931ft 473kts
01-May-18 09:37 34.823871 -118.567535 137 34922ft 472kts
01-May-18 09:38 34.736706 -118.448084 137 34914ft 473kts
01-May-18 09:39 34.649330 -118.328888 137 34903ft 473kts
01-May-18 09:40 34.561360 -118.209611 138 34910ft 473kts
01-May-18 09:41 34.473482 -118.091000 138 34907ft 474kts
01-May-18 09:42 34.405346 -117.951874 117 34928ft 494kts
01-May-18 09:43 34.366923 -117.790549 108 34946ft 499kts
01-May-18 09:44 34.329562 -117.629546 112 34944ft 497kts
01-May-18 09:45 34.290541 -117.469448 111 34940ft 497kts
01-May-18 09:46 34.251766 -117.308951 111 34949ft 496kts
01-May-18 09:47 34.212650 -117.149429 111 34952ft 494kts
01-May-18 09:48 34.173548 -116.989749 112 34925ft 494kts
01-May-18 09:49 34.134075 -116.830945 112 34903ft 494kts
01-May-18 10:04 33.568366 -114.609695 109 32306ft 486kts
01-May-18 10:05 33.538104 -114.452211 109 30309ft 482kts
01-May-18 10:06 33.508032 -114.297465 109 27635ft 475kts
01-May-18 10:07 33.478225 -114.148122 109 25461ft 452kts
01-May-18 10:08 33.450005 -114.003114 110 23956ft 438kts
01-May-18 10:09 33.401417 -113.876895 119 22874ft 424kts
01-May-18 10:10 33.381921 -113.733708 101 22878ft 439kts
01-May-18 10:11 33.360790 -113.591050 108 22084ft 425kts
01-May-18 10:12 33.336799 -113.454390 107 19916ft 411kts
01-May-18 10:13 33.313998 -113.320606 107 18754ft 402kts
01-May-18 10:14 33.292189 -113.191177 105 17257ft 392kts
01-May-18 10:15 33.275363 -113.065646 99 17000ft 377kts
01-May-18 10:16 33.277585 -112.938868 91 16668ft 381kts
01-May-18 10:17 33.284056 -112.817658 80 15372ft 353kts
01-May-18 10:18 33.320382 -112.712119 65 13838ft 329kts
01-May-18 10:19 33.359419 -112.615564 67 11801ft 315kts
01-May-18 10:20 33.394590 -112.524408 68 10280ft 280kts
01-May-18 10:21 33.424570 -112.441992 70 9079ft 253kts
01-May-18 10:22 33.431758 -112.362807 95 7415ft 235kts
01-May-18 10:23 33.430191 -112.287409 93 5971ft 203kts
01-May-18 10:24 33.439951 -112.222554 81 4898ft 193kts
01-May-18 10:25 33.441144 -112.161485 95 3572ft 174kts
01-May-18 10:26 33.441149 -112.104388 91 2411ft 171kts
01-May-18 10:27 33.440896 -112.049974 92 1562ft 156kts
01-May-18 10:28 33.440866 -112.006851 94 1144ft 31kts
01-May-18 10:29 33.439023 -112.002456 94 1144ft 18kts
01-May-18 10:30 33.438062 -112.000677 177 1144ft 3kts
01-May-18 10:31 33.437533 -112.001047 263 1144ft 0kts

Navigation Log

Ident Type
1. KSFO Airport
2. BOILE Fix
3. BLH Navaid
4. KPHX Airport